< < Back
Terminal Aerodrome Forecast


Current Version              Previous Versions:   1  2  3  4  5  6  7  8  9  

Terminal Aerodrome Forecast

365
FTUS42 KFFC 262155 AAB
TAFATL
TAF AMD
KATL 262155Z 2622/2724 19007KT P6SM FEW080
     FM270100 21003KT P6SM FEW120
     FM271500 23005KT P6SM SCT040 PROB30 2719/2723 VRB12KT 5SM TSRA
      BKN025CB=



Latest METAR

647
SAUS70 KWBC 270300 RRJ
MTRATL
METAR KATL 270252Z 23007KT 10SM FEW075 28/22 A3005 RMK AO2 SLP164
T02830222 53017


USA.gov is the U.S. government's official web portal to all federal, state and local government web resources and services.